KFKL/FKL METAR and TAF weather

Enter ICAO airport designator
Station Type Date Time Source
KFKL METAR 2018/12/15 20:56 UTC NOAA

KFKL 152056Z AUTO 05006KT 10SM OVC110 A3006 RMK AO2 SLPNO 6//// FZRANO $


Station Type Date Time Source
KFKL Decoded METAR 2018/12/15 20:56 UTC NOAA

Franklin, Venango Regional Airport, PA, United States (KFKL) 41-23N 079-52W
Dec 15, 2018 - 03:56 PM EST / 2018.12.15 2056 UTC
Wind: from the NE (050 degrees) at 7 MPH (6 KT):0
Visibility: 10 mile(s):0
Sky conditions: overcast
Pressure (altimeter): 30.06 in. Hg (1017 hPa)
ob: KFKL 152056Z AUTO 05006KT 10SM OVC110 A3006 RMK AO2 SLPNO 6//// FZRANO
cycle: 21

Station Type Date Time Source
KFKL TAF 2018/12/15 21:04 UTC NOAA

TAF
AMD KFKL 152102Z 1521/1618 05008KT P6SM SCT022 OVC035
TEMPO 1521/1524 5SM -RA OVC022
FM160000 04010KT 5SM -RA OVC015
FM161300 03005KT 6SM -RA OVC008


Example: see airport list